createdAt,value
2023-03-06T00:00:33.882Z,92.14
2023-03-06T00:03:00.604Z,92.47
2023-03-06T00:05:27.792Z,93.13
2023-03-06T00:07:54.419Z,92.72
2023-03-06T00:10:27.133Z,92.32
2023-03-06T00:12:55.643Z,92.84
2023-03-06T00:15:22.317Z,93.11
2023-03-06T00:17:48.691Z,93.25
2023-03-06T00:20:17.305Z,92.83
2023-03-06T00:22:43.626Z,93.46
2023-03-06T00:25:15.830Z,93.47
2023-03-06T00:27:42.418Z,93.07
2023-03-06T00:30:12.907Z,93.24
2023-03-06T00:32:39.284Z,93.54
2023-03-06T00:35:08.450Z,93.91
2023-03-06T00:37:34.815Z,94.15
2023-03-06T00:40:01.354Z,93.79
2023-03-06T00:42:34.385Z,94.06
2023-03-06T00:45:05.785Z,95.07
2023-03-06T00:47:32.572Z,94.99
2023-03-06T00:49:58.865Z,94.66
2023-03-06T00:52:27.636Z,94.22
2023-03-06T00:54:54.194Z,94.41
2023-03-06T00:57:22.682Z,93.79
2023-03-06T00:59:49.014Z,94.46
2023-03-06T01:02:20.291Z,94.40
2023-03-06T01:04:47.111Z,94.35
2023-03-06T01:07:18.331Z,94.70
2023-03-06T01:09:44.625Z,95.01
2023-03-06T01:12:10.976Z,95.15
2023-03-06T01:14:37.508Z,95.61
2023-03-06T01:17:07.390Z,95.35
2023-03-06T01:19:33.666Z,94.94
2023-03-06T01:21:59.983Z,94.78
2023-03-06T01:24:28.486Z,95.13
2023-03-06T01:26:54.893Z,94.88
2023-03-06T01:29:21.246Z,95.22
2023-03-06T01:31:47.762Z,95.38
2023-03-06T01:34:14.250Z,94.96
2023-03-06T01:36:40.600Z,95.16
2023-03-06T01:39:06.909Z,94.98
2023-03-06T01:41:33.254Z,94.84
2023-03-06T01:44:02.720Z,95.11
2023-03-06T01:46:35.928Z,95.38
2023-03-06T01:49:08.255Z,94.60
2023-03-06T01:51:48.955Z,95.04
2023-03-06T01:54:26.969Z,95.21
2023-03-06T01:56:58.484Z,94.67
2023-03-06T01:59:30.274Z,94.44
2023-03-06T02:01:59.246Z,95.19
2023-03-06T02:04:25.654Z,95.25
2023-03-06T02:06:52.210Z,95.54
2023-03-06T02:09:18.662Z,95.04
2023-03-06T02:11:45.033Z,94.83
2023-03-06T02:14:14.735Z,94.46
2023-03-06T02:16:49.458Z,95.50
2023-03-06T02:19:50.170Z,94.84
2023-03-06T02:22:18.942Z,95.20
2023-03-06T02:25:36.072Z,95.48
2023-03-06T02:28:03.216Z,95.42
2023-03-06T02:30:30.078Z,95.37
2023-03-06T02:32:57.134Z,95.35
2023-03-06T02:35:32.014Z,95.75
2023-03-06T02:38:05.878Z,95.96
2023-03-06T02:40:32.255Z,95.99
2023-03-06T02:43:01.188Z,96.52
2023-03-06T02:45:38.509Z,96.29
2023-03-06T02:48:08.403Z,96.21
2023-03-06T02:50:36.228Z,95.63
2023-03-06T02:53:03.835Z,96.77
2023-03-06T02:55:30.232Z,96.45
2023-03-06T02:57:56.619Z,96.50
2023-03-06T03:00:23.236Z,96.33
2023-03-06T03:02:52.239Z,96.77
2023-03-06T03:05:18.549Z,96.25
2023-03-06T03:07:45.038Z,96.61
2023-03-06T03:10:12.374Z,96.57
2023-03-06T03:12:40.568Z,96.44
2023-03-06T03:15:07.883Z,95.88
2023-03-06T03:17:42.256Z,96.58
2023-03-06T03:20:12.496Z,96.07
2023-03-06T03:22:39.006Z,96.35
2023-03-06T03:25:07.107Z,95.85
2023-03-06T03:27:33.744Z,95.33
2023-03-06T03:30:00.722Z,95.67
2023-03-06T03:32:27.251Z,95.60
2023-03-06T03:34:57.369Z,95.85
2023-03-06T03:37:26.533Z,95.83
2023-03-06T03:39:52.905Z,96.01
2023-03-06T03:42:20.563Z,96.38
2023-03-06T03:44:49.797Z,95.90
2023-03-06T03:47:20.523Z,96.25
2023-03-06T03:49:46.851Z,95.94
2023-03-06T03:52:13.219Z,95.23
2023-03-06T03:54:39.605Z,95.83
2023-03-06T03:57:06.055Z,95.82
2023-03-06T03:59:32.417Z,96.20
2023-03-06T04:02:01.826Z,95.44
2023-03-06T04:04:28.245Z,95.48
2023-03-06T04:06:54.626Z,95.41
2023-03-06T04:09:21.017Z,95.64
2023-03-06T04:11:47.318Z,95.58
2023-03-06T04:14:13.697Z,95.30
2023-03-06T04:16:40.110Z,95.62
2023-03-06T04:19:09.235Z,95.00
2023-03-06T04:21:35.611Z,95.29
2023-03-06T04:24:02.030Z,95.75
2023-03-06T04:26:28.400Z,95.52
2023-03-06T04:28:57.573Z,95.73
2023-03-06T04:31:23.944Z,94.41
2023-03-06T04:33:50.287Z,94.72
2023-03-06T04:36:29.177Z,95.37
2023-03-06T04:38:56.129Z,95.10
2023-03-06T04:41:23.381Z,94.95
2023-03-06T04:43:50.406Z,95.41
2023-03-06T04:46:17.157Z,95.56
2023-03-06T04:48:44.106Z,96.33
2023-03-06T04:51:12.822Z,95.94
2023-03-06T04:53:41.632Z,96.34
2023-03-06T04:56:08.370Z,96.60
2023-03-06T04:58:34.758Z,96.23
2023-03-06T05:01:01.123Z,96.28
2023-03-06T05:03:31.188Z,97.14
2023-03-06T05:05:58.231Z,96.85
2023-03-06T05:08:25.638Z,97.00
2023-03-06T05:11:02.247Z,97.03
2023-03-06T05:13:30.115Z,96.90
2023-03-06T05:16:02.147Z,97.29
2023-03-06T05:18:28.429Z,96.82
2023-03-06T05:20:54.732Z,98.35
2023-03-06T05:23:23.395Z,98.02
2023-03-06T05:25:51.835Z,97.84
2023-03-06T05:28:18.231Z,98.34
2023-03-06T05:30:44.736Z,98.63
2023-03-06T05:33:11.108Z,97.72
2023-03-06T05:35:39.886Z,97.75
2023-03-06T05:38:06.278Z,97.93
2023-03-06T05:40:32.700Z,97.87
2023-03-06T05:42:59.142Z,97.90
2023-03-06T05:45:25.527Z,98.12
2023-03-06T05:47:51.982Z,98.49
2023-03-06T05:50:20.410Z,97.99
2023-03-06T05:52:46.795Z,98.15
2023-03-06T05:55:15.673Z,97.83
2023-03-06T05:57:42.244Z,98.41
2023-03-06T06:00:12.454Z,98.53
2023-03-06T06:02:38.967Z,98.09
2023-03-06T06:05:07.367Z,98.30
2023-03-06T06:07:34.000Z,98.90
2023-03-06T06:10:02.389Z,98.56
2023-03-06T06:12:33.952Z,99.04
2023-03-06T06:15:01.561Z,99.42
2023-03-06T06:17:28.931Z,98.97
2023-03-06T06:19:57.689Z,99.28
2023-03-06T06:22:24.737Z,98.60
2023-03-06T06:24:54.272Z,98.59
2023-03-06T06:27:22.183Z,99.09
2023-03-06T06:29:52.280Z,98.78
2023-03-06T06:32:22.239Z,99.20
2023-03-06T06:34:48.850Z,99.45
2023-03-06T06:37:23.124Z,99.51
2023-03-06T06:39:52.312Z,99.84
2023-03-06T06:42:31.415Z,99.33
2023-03-06T06:45:02.526Z,99.21
2023-03-06T06:47:32.090Z,98.50
2023-03-06T06:49:58.455Z,98.12
2023-03-06T06:52:25.087Z,96.95
2023-03-06T06:54:56.016Z,97.28
2023-03-06T06:57:22.501Z,96.86
2023-03-06T06:59:50.128Z,96.63
2023-03-06T07:02:17.842Z,95.60
2023-03-06T07:05:01.956Z,95.60
2023-03-06T07:07:35.251Z,95.40
2023-03-06T07:10:04.586Z,94.79
2023-03-06T07:12:33.321Z,94.36
2023-03-06T07:14:59.642Z,93.64
2023-03-06T07:17:28.860Z,93.10
2023-03-06T07:19:55.191Z,93.43
2023-03-06T07:22:23.990Z,93.41
2023-03-06T07:24:52.684Z,92.81
2023-03-06T07:27:19.029Z,92.93
2023-03-06T07:29:47.830Z,93.11
2023-03-06T07:32:15.665Z,91.96
2023-03-06T07:34:42.039Z,92.36
2023-03-06T07:37:11.250Z,92.13
2023-03-06T07:39:39.762Z,91.06
2023-03-06T07:42:08.247Z,90.36
2023-03-06T07:44:40.845Z,89.64
2023-03-06T07:47:09.509Z,88.42
2023-03-06T07:49:35.917Z,87.74
2023-03-06T07:52:02.386Z,87.43
2023-03-06T07:54:31.248Z,87.15
2023-03-06T07:56:57.631Z,86.36
2023-03-06T07:59:24.157Z,84.62
2023-03-06T08:01:51.124Z,85.02
2023-03-06T08:04:21.107Z,85.86
2023-03-06T08:06:48.008Z,83.98
2023-03-06T08:09:17.498Z,83.51
2023-03-06T08:11:44.916Z,82.59
2023-03-06T08:14:12.138Z,81.02
2023-03-06T08:16:45.268Z,79.50
2023-03-06T08:19:11.746Z,77.61
2023-03-06T08:21:38.534Z,77.90
2023-03-06T08:24:08.647Z,76.19
2023-03-06T08:26:36.655Z,74.12
2023-03-06T08:29:06.497Z,75.06
2023-03-06T08:31:39.235Z,74.55
2023-03-06T08:34:09.926Z,73.24
2023-03-06T08:36:36.622Z,71.72
2023-03-06T08:39:06.891Z,72.61
2023-03-06T08:41:34.591Z,72.92
2023-03-06T08:44:02.033Z,70.06
2023-03-06T08:46:32.782Z,69.12
2023-03-06T08:49:00.707Z,68.67
2023-03-06T08:51:29.454Z,68.20
2023-03-06T08:54:04.942Z,66.06
2023-03-06T08:56:35.166Z,63.83
2023-03-06T08:59:03.879Z,63.53
2023-03-06T09:01:38.672Z,61.70
2023-03-06T09:04:10.561Z,63.21
2023-03-06T09:06:39.836Z,62.30
2023-03-06T09:09:11.465Z,62.16
2023-03-06T09:11:38.784Z,62.94
2023-03-06T09:14:05.787Z,63.81
2023-03-06T09:16:32.602Z,64.04
2023-03-06T09:18:59.007Z,63.42
2023-03-06T09:21:30.058Z,61.58
2023-03-06T09:23:56.768Z,62.47
2023-03-06T09:26:39.679Z,62.15
2023-03-06T09:29:11.302Z,61.10
2023-03-06T09:31:40.059Z,58.44
2023-03-06T09:34:06.550Z,56.86
2023-03-06T09:36:42.760Z,54.68
2023-03-06T09:39:15.812Z,52.39
2023-03-06T09:41:42.220Z,55.18
2023-03-06T09:44:39.626Z,57.50
2023-03-06T09:47:40.547Z,56.66
2023-03-06T09:50:13.217Z,54.79
2023-03-06T09:53:01.605Z,51.67
2023-03-06T09:55:38.334Z,51.30
2023-03-06T09:58:18.841Z,45.79
2023-03-06T10:00:57.454Z,47.52
2023-03-06T10:03:48.110Z,44.25
2023-03-06T10:06:39.206Z,44.70
2023-03-06T10:09:14.732Z,43.43
2023-03-06T10:11:57.088Z,43.24
2023-03-06T10:14:39.214Z,43.61
2023-03-06T10:17:10.742Z,43.27
2023-03-06T10:19:46.312Z,43.39
2023-03-06T10:22:24.428Z,42.87
2023-03-06T10:24:57.402Z,42.13
2023-03-06T10:27:44.690Z,40.45
2023-03-06T10:30:35.893Z,41.75
2023-03-06T10:33:12.306Z,42.86
2023-03-06T10:35:49.273Z,43.10
2023-03-06T10:38:19.259Z,42.90
2023-03-06T10:40:58.398Z,43.62
2023-03-06T10:43:27.629Z,46.81
2023-03-06T10:45:53.951Z,46.16
2023-03-06T10:48:31.762Z,43.14
2023-03-06T10:51:24.941Z,39.38
2023-03-06T10:54:17.563Z,39.71
2023-03-06T10:56:46.435Z,38.32
2023-03-06T10:59:24.816Z,37.97
2023-03-06T11:02:13.494Z,34.66
2023-03-06T11:04:41.325Z,35.86
2023-03-06T11:07:54.736Z,37.12
2023-03-06T11:10:21.183Z,37.46
2023-03-06T11:13:05.295Z,37.09
2023-03-06T11:15:32.976Z,37.64
2023-03-06T11:18:27.149Z,36.59
2023-03-06T11:20:54.981Z,39.26
2023-03-06T11:23:40.012Z,39.97
2023-03-06T11:26:15.517Z,43.96
2023-03-06T11:29:06.744Z,43.65
2023-03-06T11:31:47.929Z,45.02
2023-03-06T11:34:18.754Z,42.82
2023-03-06T11:36:54.860Z,43.82
2023-03-06T11:39:35.606Z,44.59
2023-03-06T11:42:23.932Z,45.04
2023-03-06T11:45:15.125Z,47.08
2023-03-06T11:47:45.837Z,48.72
2023-03-06T11:51:06.385Z,46.91
2023-03-06T11:53:39.307Z,48.90
2023-03-06T11:56:20.651Z,52.97
2023-03-06T11:59:07.505Z,52.44
2023-03-06T12:02:01.643Z,55.80
2023-03-06T12:04:44.942Z,58.81
2023-03-06T12:07:34.737Z,56.65
2023-03-06T12:10:19.908Z,55.45
2023-03-06T12:13:15.208Z,56.69
2023-03-06T12:15:45.464Z,58.30
2023-03-06T12:18:30.654Z,59.62
2023-03-06T12:21:28.839Z,59.10
2023-03-06T12:24:04.439Z,59.41
2023-03-06T12:26:33.763Z,59.11
2023-03-06T12:29:34.712Z,56.49
2023-03-06T12:32:24.714Z,56.45
2023-03-06T12:35:06.432Z,55.61
2023-03-06T12:38:11.859Z,57.62
2023-03-06T12:41:04.301Z,62.72
2023-03-06T12:44:01.976Z,63.34
2023-03-06T12:46:28.533Z,63.01
2023-03-06T12:49:03.210Z,63.36
2023-03-06T12:51:35.383Z,63.98
2023-03-06T12:54:05.809Z,63.40
2023-03-06T12:56:34.541Z,65.33
2023-03-06T12:59:01.503Z,64.11
2023-03-06T13:01:48.871Z,62.91
2023-03-06T13:04:45.751Z,63.72
2023-03-06T13:07:24.788Z,64.22
2023-03-06T13:10:09.255Z,60.46
2023-03-06T13:12:55.721Z,59.06
2023-03-06T13:15:36.162Z,57.05
2023-03-06T13:18:22.500Z,60.31
2023-03-06T13:20:49.516Z,59.95
2023-03-06T13:23:52.380Z,60.29
2023-03-06T13:26:24.771Z,62.56
2023-03-06T13:28:55.379Z,64.89
2023-03-06T13:31:28.348Z,65.20
2023-03-06T13:34:03.628Z,64.75
2023-03-06T13:36:36.701Z,66.45
2023-03-06T13:39:11.970Z,65.17
2023-03-06T13:41:53.416Z,64.60
2023-03-06T13:44:25.881Z,64.94
2023-03-06T13:47:07.293Z,65.83
2023-03-06T13:49:35.289Z,67.68
2023-03-06T13:52:13.034Z,65.23
2023-03-06T13:54:57.594Z,67.00
2023-03-06T13:57:37.905Z,65.78
2023-03-06T14:00:25.746Z,64.12
2023-03-06T14:03:10.398Z,65.07
2023-03-06T14:05:45.059Z,67.03
2023-03-06T14:08:31.481Z,65.69
2023-03-06T14:11:02.540Z,65.25
2023-03-06T14:13:46.571Z,64.51
2023-03-06T14:16:20.126Z,65.18
2023-03-06T14:18:49.916Z,67.43
2023-03-06T14:21:27.704Z,67.21
2023-03-06T14:24:00.558Z,68.75
2023-03-06T14:26:32.384Z,67.77
2023-03-06T14:29:00.476Z,67.19
2023-03-06T14:31:31.020Z,68.13
2023-03-06T14:34:03.237Z,67.78
2023-03-06T14:36:45.683Z,65.62
2023-03-06T14:39:15.316Z,64.84
2023-03-06T14:41:41.701Z,66.39
2023-03-06T14:44:24.925Z,65.19
2023-03-06T14:46:56.984Z,65.03
2023-03-06T14:49:25.144Z,65.48
2023-03-06T14:51:57.811Z,62.05
2023-03-06T14:54:37.036Z,62.06
2023-03-06T14:57:13.969Z,61.45
2023-03-06T14:59:55.996Z,61.53
2023-03-06T15:02:26.332Z,61.62
2023-03-06T15:04:57.279Z,57.05
2023-03-06T15:07:29.064Z,58.44
2023-03-06T15:09:59.198Z,59.27
2023-03-06T15:12:28.354Z,58.69
2023-03-06T15:15:08.556Z,55.27
2023-03-06T15:17:43.708Z,54.00
2023-03-06T15:20:37.985Z,54.37
2023-03-06T15:23:17.822Z,56.17
2023-03-06T15:25:54.325Z,56.47
2023-03-06T15:28:30.172Z,56.68
2023-03-06T15:31:20.356Z,56.67
2023-03-06T15:34:08.681Z,57.56
2023-03-06T15:36:41.133Z,58.65
2023-03-06T15:39:32.087Z,59.17
2023-03-06T15:41:59.186Z,59.63
2023-03-06T15:44:25.937Z,60.20
2023-03-06T15:46:59.265Z,60.43
2023-03-06T15:49:32.938Z,61.59
2023-03-06T15:51:59.312Z,63.00
2023-03-06T15:54:25.632Z,64.49
2023-03-06T15:56:53.243Z,63.68
2023-03-06T15:59:24.026Z,64.08
2023-03-06T16:01:51.898Z,64.82
2023-03-06T16:04:19.085Z,66.75
2023-03-06T16:06:45.922Z,69.66
2023-03-06T16:09:15.792Z,71.54
2023-03-06T16:11:44.209Z,73.64
2023-03-06T16:14:18.604Z,74.48
2023-03-06T16:16:44.973Z,76.18
2023-03-06T16:19:26.078Z,78.91
2023-03-06T16:21:54.270Z,79.29
2023-03-06T16:24:20.610Z,81.12
2023-03-06T16:26:49.445Z,82.21
2023-03-06T16:29:18.005Z,84.27
2023-03-06T16:31:44.663Z,83.56
2023-03-06T16:34:14.436Z,85.14
2023-03-06T16:36:41.563Z,83.57
2023-03-06T16:39:13.527Z,83.36
2023-03-06T16:41:42.235Z,85.03
2023-03-06T16:44:08.940Z,84.81
2023-03-06T16:46:39.078Z,84.03
2023-03-06T16:49:06.096Z,85.55
2023-03-06T16:51:32.433Z,85.30
2023-03-06T16:54:01.053Z,86.86
2023-03-06T16:56:29.780Z,86.03
2023-03-06T16:58:56.133Z,86.19
2023-03-06T17:01:22.652Z,86.82
2023-03-06T17:03:49.197Z,86.14
2023-03-06T17:06:17.916Z,87.06
2023-03-06T17:08:45.255Z,86.79
2023-03-06T17:11:12.837Z,86.94
2023-03-06T17:13:42.214Z,87.08
2023-03-06T17:16:12.383Z,87.32
2023-03-06T17:18:43.147Z,87.85
2023-03-06T17:21:09.670Z,89.31
2023-03-06T17:23:37.369Z,88.12
2023-03-06T17:26:17.689Z,87.97
2023-03-06T17:28:45.472Z,89.53
2023-03-06T17:31:34.954Z,87.45
2023-03-06T17:34:03.109Z,87.33
2023-03-06T17:36:31.216Z,87.44
2023-03-06T17:38:59.658Z,86.68
2023-03-06T17:41:28.988Z,85.63
2023-03-06T17:43:56.229Z,86.48
2023-03-06T17:46:24.266Z,85.03
2023-03-06T17:48:50.692Z,84.86
2023-03-06T17:51:21.214Z,84.19
2023-03-06T17:53:47.818Z,84.84
2023-03-06T17:56:16.579Z,83.67
2023-03-06T17:58:45.438Z,84.01
2023-03-06T18:01:17.726Z,82.48
2023-03-06T18:03:46.576Z,81.36
2023-03-06T18:06:13.477Z,81.88
2023-03-06T18:08:43.032Z,80.84
2023-03-06T18:11:11.225Z,82.26
2023-03-06T18:13:42.564Z,81.83
2023-03-06T18:16:11.307Z,83.17
2023-03-06T18:18:40.690Z,82.11
2023-03-06T18:21:11.818Z,84.54
2023-03-06T18:23:45.481Z,84.39
2023-03-06T18:26:33.227Z,85.27
2023-03-06T18:29:04.032Z,86.48
2023-03-06T18:31:34.265Z,86.20
2023-03-06T18:34:28.994Z,86.85
2023-03-06T18:36:55.578Z,87.73
2023-03-06T18:39:28.037Z,87.80
2023-03-06T18:41:54.394Z,86.94
2023-03-06T18:44:21.075Z,87.54
2023-03-06T18:46:47.672Z,89.12
2023-03-06T18:49:14.366Z,87.80
2023-03-06T18:51:40.810Z,86.70
2023-03-06T18:54:08.699Z,88.49
2023-03-06T18:56:36.217Z,87.33
2023-03-06T18:59:04.848Z,87.81
2023-03-06T19:01:33.429Z,88.24
2023-03-06T19:04:05.180Z,88.36
2023-03-06T19:06:31.892Z,89.50
2023-03-06T19:09:02.882Z,89.61
2023-03-06T19:11:34.250Z,89.63
2023-03-06T19:14:01.173Z,90.36
2023-03-06T19:16:29.351Z,90.17
2023-03-06T19:19:01.195Z,90.58
2023-03-06T19:21:28.257Z,91.79
2023-03-06T19:23:57.818Z,91.56
2023-03-06T19:26:28.892Z,91.18
2023-03-06T19:28:55.721Z,92.06
2023-03-06T19:31:28.686Z,92.39
2023-03-06T19:34:00.925Z,92.64
2023-03-06T19:36:28.836Z,93.34
2023-03-06T19:38:59.636Z,94.04
2023-03-06T19:41:26.292Z,94.17
2023-03-06T19:43:59.797Z,94.37
2023-03-06T19:46:27.039Z,94.49
2023-03-06T19:48:58.677Z,93.95
2023-03-06T19:51:28.316Z,93.91
2023-03-06T19:53:56.682Z,94.33
2023-03-06T19:56:25.675Z,93.99
2023-03-06T19:58:52.930Z,94.66
2023-03-06T20:01:26.074Z,95.07
2023-03-06T20:03:57.268Z,94.80
2023-03-06T20:06:24.776Z,94.22
2023-03-06T20:08:51.354Z,95.53
2023-03-06T20:11:23.015Z,96.24
2023-03-06T20:13:50.032Z,95.38
2023-03-06T20:16:28.072Z,94.62
2023-03-06T20:18:56.844Z,95.99
2023-03-06T20:21:23.586Z,95.56
2023-03-06T20:23:54.147Z,96.12
2023-03-06T20:26:20.762Z,96.04
2023-03-06T20:28:51.959Z,95.37
2023-03-06T20:31:20.602Z,96.78
2023-03-06T20:33:50.554Z,96.45
2023-03-06T20:36:24.092Z,96.84
2023-03-06T20:38:50.514Z,96.47
2023-03-06T20:41:25.390Z,97.31
2023-03-06T20:43:52.655Z,97.36
2023-03-06T20:46:23.408Z,97.28
2023-03-06T20:48:52.152Z,97.82
2023-03-06T20:51:22.906Z,97.44
2023-03-06T20:53:51.068Z,98.03
2023-03-06T20:56:20.301Z,98.42
2023-03-06T20:58:47.124Z,98.09
2023-03-06T21:01:28.308Z,98.54
2023-03-06T21:03:55.624Z,99.17
2023-03-06T21:06:22.868Z,98.92
2023-03-06T21:08:56.093Z,99.33
2023-03-06T21:11:22.409Z,98.83
2023-03-06T21:13:50.058Z,99.49
2023-03-06T21:16:20.132Z,98.27
2023-03-06T21:18:47.061Z,98.90
2023-03-06T21:21:19.092Z,98.82
2023-03-06T21:23:46.740Z,99.26
2023-03-06T21:26:16.475Z,99.42
2023-03-06T21:28:43.709Z,100.00
2023-03-06T21:31:14.753Z,100.00
2023-03-06T21:33:44.139Z,99.91
2023-03-06T21:36:10.586Z,99.77
2023-03-06T21:38:39.830Z,100.00
2023-03-06T21:41:18.467Z,100.00
2023-03-06T21:43:47.307Z,100.00
2023-03-06T21:46:13.842Z,99.93
2023-03-06T21:48:42.469Z,100.00
2023-03-06T21:51:17.300Z,99.70
2023-03-06T21:53:44.683Z,99.66
2023-03-06T21:56:12.229Z,99.65
2023-03-06T21:58:38.614Z,99.36
2023-03-06T22:01:09.912Z,98.57
2023-03-06T22:03:41.079Z,99.12
2023-03-06T22:06:12.771Z,99.29
2023-03-06T22:08:50.883Z,98.93
2023-03-06T22:11:20.903Z,99.20
2023-03-06T22:13:48.273Z,99.45
2023-03-06T22:16:15.054Z,99.05
2023-03-06T22:18:49.358Z,98.76
2023-03-06T22:21:23.670Z,97.70
2023-03-06T22:23:51.742Z,96.87
2023-03-06T22:26:23.040Z,97.08
2023-03-06T22:28:53.107Z,96.34
2023-03-06T22:31:23.365Z,96.58
2023-03-06T22:33:51.617Z,95.65
2023-03-06T22:36:18.378Z,95.86
2023-03-06T22:38:46.632Z,95.93
2023-03-06T22:41:15.405Z,96.26
2023-03-06T22:43:42.443Z,95.80
2023-03-06T22:46:11.502Z,96.04
2023-03-06T22:48:37.904Z,96.65
2023-03-06T22:51:06.546Z,96.32
2023-03-06T22:53:33.808Z,96.22
2023-03-06T22:56:02.160Z,96.27
2023-03-06T22:58:29.960Z,96.46
2023-03-06T23:00:58.099Z,96.65
2023-03-06T23:03:26.709Z,96.63
2023-03-06T23:05:55.983Z,96.50
2023-03-06T23:08:22.360Z,96.60
2023-03-06T23:10:48.732Z,96.18
2023-03-06T23:13:17.553Z,97.33
2023-03-06T23:15:43.952Z,96.62
2023-03-06T23:18:12.810Z,97.23
2023-03-06T23:20:44.209Z,97.24
2023-03-06T23:23:17.505Z,96.85
2023-03-06T23:25:47.885Z,96.88
2023-03-06T23:28:16.894Z,96.96
2023-03-06T23:30:43.848Z,97.39
2023-03-06T23:33:13.221Z,98.22
2023-03-06T23:35:39.591Z,98.60
2023-03-06T23:38:08.965Z,98.55
2023-03-06T23:40:37.146Z,98.72
2023-03-06T23:43:03.579Z,99.33
2023-03-06T23:45:33.410Z,99.63
2023-03-06T23:47:59.757Z,99.49
2023-03-06T23:50:31.491Z,99.59
2023-03-06T23:52:59.133Z,99.73
2023-03-06T23:55:26.649Z,99.42
2023-03-06T23:57:53.011Z,99.42
